Aeroporto :
LOGIN :

Iscrizione | Disclaimer

   EN    FR    IT 

 










Sommario :    VFR   VFR Marginale   IFR   IFR Intensivo   IFR Molto Intensivo
Visibilità : 
Base nubi : 
>= 8 km
>= 3000ft
5 / 8 km
1000 / 3000 ft
1500m / 5 km
500 / 1000 ft
800 / 1500m
200 / 500 ft
< 800m
< 200 ft
Simboli :   Temporali  Nebbia  Neve Forte  Precipitazioni Forti  Vento > 20 kt
SIGMETs :   Varie  Temporali  Ghiacco  Turbolenza  Onda orograficha  Ceneri Vulcaniche






- Altitudine del aeroporto : 158 ft
- Codice IATA : QAR


EHDL - Deelen Airbase

ULTIMO METAR :
  • 122055Z AUTO 18011KT 120V260 9999 BKN034 OVC039 04/02 Q0998 BLU

METARs OBSOLETI :
  • 122025Z AUTO 18013KT 130V250 9999 FEW038 BKN042 04/02 Q0998 BLU
  • 121955Z AUTO 17012KT 120V210 9999 NCD 04/02 Q0998 BLU
  • 121925Z AUTO 18012KT 120V230 9999 NCD 04/02 Q0998 BLU
  • 121855Z AUTO 17011KT 130V210 9999 NCD 04/02 Q0998 BLU
  • 121825Z AUTO 17010KT 120V210 9999 NCD 04/02 Q0998 BLU

TAF TAF EHDL
Valido dal 12 a 18 ore il 13 a 06 ore UTC


121749Z 1218/1306 21011KT CAVOK
BECMG 1222/1224 SCT015 BKN020
TEMPO 1223/1306 21011G21KT 4000 RA SHRA SCT008 BKN012 SCT018CB
PROB40
TEMPO 1300/1306 BKN005



MetMap, La meteo Aeronautica in un colpo d'occhio ! - Copyright ORBIFLY Dicembre 2007 - Disclaimer

ORBIFLY MET'MAP TEAM :

Programmazione e sviluppo : Alexandra Zaïnal
Concezione e sviluppo : Baudouin d'Aumeries
Co-Programmazione e sviluppo : Marc-Olivier Méhu
Supporto tecnico e logistico : Manuel Goepfert
Aiuto per la traduzione : Arnaldo La Scala

Contatto : metmap@orbifly.com




FONTI E CREDITI :

   NOAA